Main page
METAR-TAF:

METAR-TAF

Airports :

Camiri Airport

Camiri, Bolivia

latitude: 20-00S, longitude: 063-32W, elevation: 798 m

Current weather observation

The report was made 5 hours and 32 minutes ago, at 23:00 UTC
Calm wind
Temperature 27°C
Humidity 32%
Pressure 1015 hPa
Visibility 10 km or more

METAR: SLCA 252300Z 00000KT 9999 NSC 27/09 Q1015

Time: 00:32 (04:32 UTC)


TAF: missing

Weather observations and forecasts of more than 4000 airports (METAR and TAF reports).

The available stations are represented by yellow and red dots on the map.

Hover mouse over dot to see the name of the station.

Then click to see weather observations and forecasts.

To change the map : click on the green buttons with a black cross to zoom in, on the green button with a dash to zoom out, or on the green arrows for adjacent maps.


METAR-TAF: